• Join FlightAware (Why Join?)
  • Login
  • US Flag 
11:02AM EDT


 

Airport Tracker/Info


-or-


 

Live Flight TrackerFlight Track Log ✈ BAW2648 ✈ 15-Sep-2013 ✈ EGKK / LGW - LATI / TIA

Flight Track Log - Related Links

Times and Time Zones

All times are in EDT time to prevent confusion due to time zone crossing. See the BAW2648 flight status page for this flight to view local times or setup timezone preferences in your user account.

Time Position Orientation Groundspeed Altitude Reporting Facility
EDT Latitude Longitude Course Direction KTS MPH feet Rate Location/Type
12:38PM 51.1417 -0.2331 256° West 188 216 2,200  Level FlightAware UK
12:39PM 51.1373 -0.2616 256° West 222 255 2,600 1,200 Climbing FlightAware UK
12:39PM 51.1353 -0.2782 259° West 234 269 2,900 2,220 Climbing FlightAware UK
12:39PM 51.1464 -0.3119 298° West 250 288 4,000 2,760 Climbing FlightAware UK
12:39PM 51.1515 -0.3178 324° Northwest 252 290 4,300 3,000 Climbing FlightAware UK
12:40PM 51.1577 -0.3221 336° Northwest 254 292 4,600 2,820 Climbing FlightAware UK
12:40PM 51.1558 -0.3455 336° Northwest 256 295 5,100 2,760 Climbing FlightAware ADS-B
12:40PM 51.1614 -0.3448 North 263 303 5,300 2,460 Climbing FlightAware ADS-B
12:40PM 51.1697 -0.3413 15° North 275 316 5,600 2,160 Climbing FlightAware ADS-B
12:40PM 51.1741 -0.3380 25° Northeast 280 322 5,700 2,400 Climbing FlightAware ADS-B
12:40PM 51.1810 -0.3313 31° Northeast 286 329 6,000 1,500 Climbing FlightAware ADS-B
12:40PM 51.2018 -0.3071 36° Northeast 313 360 6,300 420 Climbing FlightAware ADS-B
12:41PM 51.2255 -0.2786 37° Northeast 343 395 6,300  Level FlightAware ADS-B
12:41PM 51.2530 -0.2453 37° Northeast 351 404 6,300 -180 Level FlightAware ADS-B
12:41PM 51.2742 -0.2194 37° Northeast 352 405 6,200 -240 Descending FlightAware ADS-B
12:42PM 51.2878 -0.2026 38° Northeast 352 405 6,200 300 Level FlightAware ADS-B
12:42PM 51.2966 -0.1884 45° Northeast 356 410 6,300 900 Climbing FlightAware ADS-B
12:42PM 51.3012 -0.1781 54° Northeast 358 412 6,400 1,320 Climbing FlightAware ADS-B
12:42PM 51.3044 -0.1689 61° Northeast 361 415 6,500 840 Climbing FlightAware ADS-B
12:42PM 51.3070 -0.1597 66° East 364 419 6,500 1,500 Level FlightAware ADS-B
12:42PM 51.3096 -0.1474 71° East 366 421 6,700 2,520 Climbing FlightAware ADS-B
12:42PM 51.3123 -0.1246 79° East 365 420 7,100 3,000 Climbing FlightAware ADS-B
12:42PM 51.3170 -0.0742 81° East 365 420 8,100 2,820 Climbing FlightAware ADS-B
12:43PM 51.3237 -0.0007 82° East 372 428 9,300 2,400 Climbing FlightAware ADS-B
12:43PM 51.3278 0.0471 82° East 379 436 9,900 2,160 Climbing FlightAware ADS-B
12:44PM 51.3359 0.1375 82° East 391 450 11,100 2,520 Climbing FlightAware ADS-B
12:44PM 51.3441 0.2290 82° East 392 451 12,600 2,700 Climbing FlightAware ADS-B
12:45PM 51.3513 0.3025 81° East 399 459 13,700 2,280 Climbing FlightAware ADS-B
12:45PM 51.3599 0.4022 82° East 412 474 14,900 2,400 Climbing FlightAware ADS-B
12:46PM 51.3729 0.6057 82° East 378 435 17,400 2,400 Climbing FlightAware UK
12:47PM 51.3533 0.7510 102° East 384 442 19,200 1,800 Climbing FlightAware UK
12:48PM 51.3367 0.8853 101° East 406 467 20,100 1,440 Climbing FlightAware UK
12:48PM 51.3219 1.0041 101° East 418 481 21,100 1,800 Climbing FlightAware UK
12:49PM 51.3094 1.1050 101° East 416 479 22,100 1,860 Climbing FlightAware UK
12:49PM 51.2965 1.2058 102° East 422 486 23,000 1,680 Climbing FlightAware UK
12:50PM 51.2833 1.3083 102° East 430 495 23,800 1,440 Climbing FlightAware UK
12:50PM 51.2695 1.4119 102° East 434 499 24,500 1,440 Climbing FlightAware UK
12:51PM 51.2554 1.5156 102° East 436 502 25,300 1,500 Climbing FlightAware UK
12:51PM 51.2407 1.6218 102° East 446 513 26,000 1,500 Climbing FlightAware UK
12:52PM 51.2225 1.7259 106° East 452 520 26,800 1,500 Climbing FlightAware UK
12:52PM 51.1953 1.8242 114° Southeast 448 516 27,500 1,200 Climbing FlightAware UK
12:53PM 51.1697 1.8462 114° Southeast 496 571 27,700 840 Climbing FlightAware ADS-B
12:53PM 51.1389 1.9561 114° Southeast 503 579 28,200 1,260 Climbing FlightAware ADS-B
12:54PM 51.0994 2.1680 114° Southeast 458 527 29,600 1,620 Climbing FlightAware UK
12:55PM 51.0707 2.2667 115° Southeast 452 520 30,500 1,380 Climbing FlightAware UK
12:55PM 51.0424 2.3634 115° Southeast 450 518 31,000 360 Climbing FlightAware UK
12:56PM 51.0024 2.5007 115° Southeast 450 518 31,000  Level FlightAware UK
12:56PM 50.9740 2.5984 115° Southeast 452 520 31,000  Level FlightAware UK
12:57PM 50.9058 2.8320 115° Southeast 454 522 31,000 -60 Level FlightAware UK
12:58PM 50.8714 2.9480 115° Southeast 456 525 30,900 -120 Descending FlightAware UK
12:59PM 50.8429 3.0442 115° Southeast 452 520 30,900  Level FlightAware UK
12:59PM 50.8145 3.1403 115° Southeast 448 516 30,900  Level FlightAware UK
01:00PM 50.7740 3.2748 115° Southeast 446 513 30,900  Level FlightAware UK
01:00PM 50.7449 3.3704 116° Southeast 450 518 30,900  Level FlightAware UK
01:01PM 50.6985 3.5238 116° Southeast 454 522 30,900  Level FlightAware UK
01:02PM 50.6638 3.6389 115° Southeast 452 520 30,900  Level FlightAware UK
01:03PM 50.6111 3.8104 116° Southeast 450 518 30,900  Level FlightAware UK
01:03PM 50.5584 3.9812 116° Southeast 452 520 31,000  Climbing FlightAware UK
01:05PM 50.4761 4.2464 116° Southeast 1 1 30,900  Descending FlightAware UK
01:05PM 50.4478 4.3428 115° Southeast 1 1 31,000 60 Climbing FlightAware UK
01:06PM 50.4160 4.4329 119° Southeast 1 1 31,000  Level FlightAware UK
01:08PM 50.3136 4.6655 125° Southeast  Level Estimated
01:15PM 49.8784 5.6318 125° Southeast  Level Estimated
01:16PM 49.8156 5.7685 125° Southeast  Level Estimated
01:17PM 49.7526 5.9047 126° Southeast  Level Estimated
01:18PM 49.6895 6.0406 126° Southeast  Level Estimated
01:19PM 49.6262 6.1762 126° Southeast  Level Estimated
01:20PM 49.5627 6.3114 126° Southeast  Level Estimated
01:21PM 49.4991 6.4462 126° Southeast  Level Estimated
01:22PM 49.4353 6.5807 126° Southeast  Level Estimated
01:23PM 49.3714 6.7149 126° Southeast  Level Estimated
01:24PM 49.3073 6.8487 126° Southeast  Level Estimated
01:25PM 49.2431 6.9821 126° Southeast  Level Estimated
01:26PM 49.1787 7.1153 126° Southeast  Level Estimated
01:27PM 49.1142 7.2480 127° Southeast  Level Estimated
01:28PM 49.0495 7.3804 127° Southeast  Level Estimated
01:29PM 48.9846 7.5125 127° Southeast  Level Estimated
01:30PM 48.9196 7.6442 127° Southeast  Level Estimated
01:31PM 48.8545 7.7756 127° Southeast  Level Estimated
01:32PM 48.7892 7.9066 127° Southeast  Level Estimated
01:33PM 48.7238 8.0373 127° Southeast  Level Estimated
01:34PM 48.6582 8.1677 127° Southeast  Level Estimated
01:35PM 48.5924 8.2977 127° Southeast  Level Estimated
01:36PM 48.5266 8.4274 127° Southeast  Level Estimated
01:37PM 48.4605 8.5568 128° Southeast  Level Estimated
01:38PM 48.3943 8.6858 128° Southeast  Level Estimated
01:39PM 48.3280 8.8144 128° Southeast  Level Estimated
01:40PM 48.2616 8.9428 128° Southeast  Level Estimated
01:41PM 48.1950 9.0708 128° Southeast  Level Estimated
01:42PM 48.1282 9.1985 128° Southeast  Level Estimated
01:43PM 48.0614 9.3258 128° Southeast  Level Estimated
01:44PM 47.9943 9.4528 128° Southeast  Level Estimated
01:45PM 47.9272 9.5795 128° Southeast  Level Estimated
01:46PM 47.8599 9.7058 128° Southeast  Level Estimated
01:47PM 47.7924 9.8319 129° Southeast  Level Estimated
01:48PM 47.7248 9.9576 129° Southeast  Level Estimated
01:49PM 47.6571 10.0829 129° Southeast  Level Estimated
01:50PM 47.5893 10.2080 129° Southeast  Level Estimated
01:51PM 47.5213 10.3327 129° Southeast  Level Estimated
01:52PM 47.4532 10.4571 129° Southeast  Level Estimated
01:53PM 47.3849 10.5812 129° Southeast  Level Estimated
01:54PM 47.3165 10.7049 129° Southeast  Level Estimated
01:55PM 47.2480 10.8284 129° Southeast  Level Estimated
01:56PM 47.1793 10.9515 129° Southeast  Level Estimated
01:57PM 47.1105 11.0743 129° Southeast  Level Estimated
01:58PM 47.0416 11.1967 130° Southeast  Level Estimated
01:59PM 46.9726 11.3189 130° Southeast  Level Estimated
02:00PM 46.9034 11.4408 130° Southeast  Level Estimated
02:01PM 46.8341 11.5623 130° Southeast  Level Estimated
02:02PM 46.7647 11.6835 130° Southeast  Level Estimated
02:03PM 46.6951 11.8044 130° Southeast  Level Estimated
02:04PM 46.6254 11.9250 130° Southeast  Level Estimated
02:05PM 46.5556 12.0453 130° Southeast  Level Estimated
02:06PM 46.4856 12.1653 130° Southeast  Level Estimated
02:07PM 46.4156 12.2850 130° Southeast  Level Estimated
02:08PM 46.3454 12.4043 130° Southeast  Level Estimated
02:09PM 46.2751 12.5234 130° Southeast  Level Estimated
02:10PM 46.2046 12.6421 131° Southeast  Level Estimated
02:11PM 46.1341 12.7605 131° Southeast  Level Estimated
02:12PM 46.0634 12.8787 131° Southeast  Level Estimated
02:13PM 45.9926 12.9965 131° Southeast  Level Estimated
02:14PM 45.9217 13.1141 131° Southeast  Level Estimated
02:15PM 45.8506 13.2313 131° Southeast  Level Estimated
02:16PM 45.7795 13.3483 131° Southeast  Level Estimated
02:17PM 45.7082 13.4649 131° Southeast  Level Estimated
02:18PM 45.6368 13.5812 131° Southeast  Level Estimated
02:19PM 45.5653 13.6973 131° Southeast  Level Estimated
02:20PM 45.4936 13.8130 131° Southeast  Level Estimated
02:21PM 45.4219 13.9285 132° Southeast  Level Estimated
02:22PM 45.3500 14.0436 132° Southeast  Level Estimated
02:23PM 45.2761 14.1616 132° Southeast  Level Estimated
02:24PM 45.2021 14.2792 132° Southeast  Level Estimated
02:25PM 45.1280 14.3965 132° Southeast  Level Estimated
02:26PM 45.0537 14.5134 132° Southeast  Level Estimated
02:27PM 44.9794 14.6301 132° Southeast  Level Estimated
02:28PM 44.9049 14.7465 132° Southeast  Level Estimated
02:29PM 44.8302 14.8626 132° Southeast  Level Estimated
02:30PM 44.7555 14.9784 132° Southeast  Level Estimated
02:31PM 44.6807 15.0939 132° Southeast  Level Estimated
02:32PM 44.6057 15.2091 132° Southeast  Level Estimated
02:33PM 44.5306 15.3239 132° Southeast  Level Estimated
02:34PM 44.4554 15.4385 133° Southeast  Level Estimated
02:35PM 44.3801 15.5528 133° Southeast  Level Estimated
02:36PM 44.3047 15.6668 133° Southeast  Level Estimated
02:37PM 44.2292 15.7805 133° Southeast  Level Estimated
02:38PM 44.1535 15.8940 133° Southeast  Level Estimated
02:39PM 44.0778 16.0071 133° Southeast  Level Estimated
02:40PM 44.0019 16.1199 133° Southeast  Level Estimated
02:41PM 43.9259 16.2325 133° Southeast  Level Estimated
02:42PM 43.8498 16.3447 133° Southeast  Level Estimated
02:43PM 43.7737 16.4567 133° Southeast  Level Estimated
02:44PM 43.6973 16.5684 133° Southeast  Level Estimated
02:45PM 43.6209 16.6798 133° Southeast  Level Estimated
02:46PM 43.5444 16.7910 134° Southeast  Level Estimated
02:47PM 43.4678 16.9018 134° Southeast  Level Estimated
02:48PM 43.3910 17.0124 134° Southeast  Level Estimated
02:49PM 43.3142 17.1226 134° Southeast  Level Estimated
02:50PM 43.2372 17.2326 134° Southeast  Level Estimated
02:51PM 43.1602 17.3424 134° Southeast  Level Estimated
02:52PM 43.0830 17.4518 134° Southeast  Level Estimated
02:53PM 43.0058 17.5610 134° Southeast  Level Estimated
02:54PM 42.9284 17.6699 134° Southeast  Level Estimated
02:55PM 42.8509 17.7785 134° Southeast  Level Estimated
02:56PM 42.7734 17.8869 134° Southeast  Level Estimated
02:57PM 42.6957 17.9949 134° Southeast  Level Estimated
02:58PM 42.6179 18.1028 134° Southeast  Level Estimated
02:59PM 42.5400 18.2103 134° Southeast  Level Estimated
03:00PM 42.4621 18.3176 135° Southeast  Level Estimated
03:01PM 42.3840 18.4246 135° Southeast  Level Estimated
03:02PM 42.3058 18.5313 135° Southeast  Level Estimated
03:03PM 42.2275 18.6378 135° Southeast  Level Estimated
03:04PM 42.1492 18.7440 135° Southeast  Level Estimated
03:05PM 42.0707 18.8500 135° Southeast  Level Estimated
03:06PM 41.9921 18.9557 135° Southeast  Level Estimated
03:07PM 41.9134 19.0611 135° Southeast  Level Estimated
03:08PM 41.8347 19.1663 135° Southeast  Level Estimated
03:09PM 41.7558 19.2712 135° Southeast  Level Estimated
03:10PM 41.6769 19.3758 135° Southeast  Level Estimated
03:11PM 41.5978 19.4802 135° Southeast  Level Estimated